Time;durP1;ratioP1;P1;durP2;ratioP2;P2;SDS_P1;SDS_P2;PMS_P1;PMS_P2;Temp;Humidity;BMP_temperature;BMP_pressure;BME280_temperature;BME280_humidity;BME280_pressure;Samples;Min_cycle;Max_cycle;Signal;HPM_P1;HPM_P2
2022/01/20 00:00:45;;;;;;;30.80;19.30;;;;;;;6.67;99.89;102358.00;5018198;28;20064;-63
2022/01/20 00:03:18;;;;;;;36.60;20.40;;;;;;;6.63;100.00;102355.97;5035322;28;20052;-62
2022/01/20 00:09:15;;;;;;;30.67;19.55;;;;;;;6.78;99.73;102368.03;5035270;28;20046;-62
2022/01/20 00:28:08;;;;;;;26.52;17.35;;;;;;;6.46;100.00;102366.91;5035087;28;20057;-64
2022/01/20 00:30:44;;;;;;;34.03;18.42;;;;;;;6.47;100.00;102362.25;5027799;28;20645;-63
2022/01/20 00:38:23;;;;;;;28.98;17.02;;;;;;;6.56;98.96;102344.34;5034639;28;20049;-63
2022/01/20 00:40:52;;;;;;;28.65;16.88;;;;;;;6.54;98.56;102352.81;5034909;28;20128;-62
2022/01/20 00:43:19;;;;;;;28.50;16.95;;;;;;;6.62;98.36;102346.13;5037619;28;20619;-61
2022/01/20 00:45:47;;;;;;;29.85;17.75;;;;;;;6.51;98.09;102339.63;5033508;28;20067;-60
2022/01/20 00:48:18;;;;;;;29.33;17.38;;;;;;;6.52;98.51;102338.53;5032724;28;20057;-62
2022/01/20 00:50:46;;;;;;;29.17;17.10;;;;;;;6.58;97.92;102348.53;5035918;28;20069;-61
2022/01/20 00:53:14;;;;;;;30.23;16.63;;;;;;;6.70;97.54;102353.91;5038676;28;20476;-61
2022/01/20 00:55:41;;;;;;;29.58;17.65;;;;;;;6.76;97.02;102350.19;5039017;28;20060;-62
2022/01/20 00:58:08;;;;;;;31.15;16.13;;;;;;;6.83;95.78;102351.66;5038018;28;20052;-62
2022/01/20 01:00:36;;;;;;;30.58;16.67;;;;;;;6.57;96.40;102348.78;5020415;28;20065;-62
2022/01/20 01:03:04;;;;;;;28.52;16.33;;;;;;;6.56;96.53;102344.34;5037827;28;20527;-61
2022/01/20 01:05:34;;;;;;;27.15;16.98;;;;;;;6.63;96.21;102343.13;5037303;28;20046;-60
2022/01/20 01:08:06;;;;;;;26.02;16.10;;;;;;;6.67;95.92;102344.31;5038448;28;20058;-61
2022/01/20 01:10:38;;;;;;;31.92;16.45;;;;;;;6.55;95.88;102350.91;5037044;28;20056;-63
2022/01/20 01:13:12;;;;;;;29.30;16.25;;;;;;;6.53;96.14;102364.03;5038327;28;20057;-62
2022/01/20 01:15:44;;;;;;;32.95;17.50;;;;;;;6.35;97.16;102362.31;5037534;28;20412;-63
2022/01/20 01:23:40;;;;;;;29.23;15.75;;;;;;;6.43;96.00;102364.66;5037034;28;20045;-64
2022/01/20 01:26:10;;;;;;;26.25;15.43;;;;;;;6.48;95.87;102389.41;5036888;28;20049;-63
2022/01/20 01:28:37;;;;;;;;;;;;;;;6.07;97.12;102384.22;5038574;28;20073;-62
2022/01/20 01:33:56;;;;;;;30.45;15.48;;;;;;;6.25;97.81;102400.44;5036938;28;20060;-61
2022/01/20 01:36:27;;;;;;;29.23;16.00;;;;;;;6.54;96.28;102398.50;5037543;28;20064;-61
2022/01/20 01:38:54;;;;;;;31.70;15.80;;;;;;;6.34;95.68;102414.56;5036685;28;20049;-64
2022/01/20 01:41:34;;;;;;;28.63;15.77;;;;;;;6.08;96.83;102409.66;5036882;28;20053;-62
2022/01/20 01:44:06;;;;;;;33.65;15.32;;;;;;;6.03;97.02;102415.03;5036627;28;20385;-63
2022/01/20 01:46:36;;;;;;;30.92;16.67;;;;;;;6.11;97.19;102417.38;5036659;28;20062;-63
2022/01/20 01:49:04;;;;;;;33.07;15.60;;;;;;;6.05;96.92;102404.69;5019725;28;20080;-64
2022/01/20 01:51:32;;;;;;;31.45;15.95;;;;;;;6.00;97.51;102408.13;5019396;28;20054;-62
2022/01/20 01:53:59;;;;;;;29.35;15.15;;;;;;;6.04;96.79;102414.78;5019478;28;20057;-65
2022/01/20 01:56:27;;;;;;;32.45;15.65;;;;;;;5.89;96.78;102430.03;5036045;28;20049;-62
2022/01/20 01:58:55;;;;;;;28.67;14.57;;;;;;;5.91;97.22;102447.88;5036004;28;20072;-61
2022/01/20 02:01:38;;;;;;;25.02;14.35;;;;;;;5.77;97.10;102446.41;5021646;28;20060;-60
2022/01/20 02:04:17;;;;;;;25.88;14.23;;;;;;;5.68;97.12;102443.22;5035818;28;20413;-61
2022/01/20 02:18:36;;;;;;;30.85;15.07;;;;;;;5.50;97.79;102456.19;5021911;28;20057;-60
2022/01/20 02:21:06;;;;;;;33.63;14.40;;;;;;;5.47;98.31;102462.94;5035773;28;20064;-61
2022/01/20 02:23:34;;;;;;;27.80;14.43;;;;;;;5.46;98.66;102452.25;5035825;28;20052;-62
2022/01/20 02:26:02;;;;;;;29.17;14.60;;;;;;;5.72;98.16;102454.50;5035821;28;20065;-60
2022/01/20 02:28:30;;;;;;;29.05;14.52;;;;;;;5.78;97.47;102452.72;5019104;28;20057;-64
2022/01/20 02:30:57;;;;;;;29.83;14.80;;;;;;;5.75;96.38;102448.59;5028342;28;20049;-61
2022/01/20 02:33:29;;;;;;;27.08;13.20;;;;;;;5.46;97.02;102472.22;5023184;28;20041;-61
2022/01/20 02:36:09;;;;;;;31.00;14.25;;;;;;;5.49;96.82;102460.00;5018137;28;20057;-61
2022/01/20 02:38:44;;;;;;;27.42;14.10;;;;;;;5.46;97.43;102463.19;5016773;28;20058;-63
2022/01/20 02:46:45;;;;;;;26.27;14.23;;;;;;;5.29;97.27;102454.03;5032238;28;20481;-64
2022/01/20 02:49:17;;;;;;;29.45;14.15;;;;;;;5.65;97.56;102448.34;5006249;28;20057;-63
2022/01/20 02:51:53;;;;;;;27.63;14.35;;;;;;;5.66;95.73;102441.81;5002003;28;20046;-63
2022/01/20 02:54:21;;;;;;;25.52;12.88;;;;;;;5.56;95.27;102436.13;5016580;28;20050;-63
2022/01/20 02:56:49;;;;;;;30.10;12.55;;;;;;;5.58;95.24;102442.16;5017548;28;20057;-62
2022/01/20 02:59:16;;;;;;;28.98;12.75;;;;;;;5.46;94.93;102441.34;5034971;28;20053;-63
2022/01/20 03:01:43;;;;;;;25.42;11.57;;;;;;;5.60;94.76;102445.50;5036370;28;20049;-63
2022/01/20 03:04:11;;;;;;;30.88;12.57;;;;;;;5.38;93.99;102444.44;5035224;28;20057;-65
2022/01/20 03:06:39;;;;;;;25.73;11.60;;;;;;;5.62;93.57;102444.19;5034730;28;20056;-63
2022/01/20 03:09:06;;;;;;;22.23;11.27;;;;;;;5.54;92.93;102446.47;5036205;28;20064;-63
2022/01/20 03:11:34;;;;;;;31.42;12.43;;;;;;;5.43;93.20;102445.38;5034954;28;20046;-61
2022/01/20 03:14:02;;;;;;;28.02;11.75;;;;;;;5.30;93.62;102447.53;5035515;28;20042;-63
2022/01/20 03:16:29;;;;;;;30.77;12.02;;;;;;;4.98;94.42;102457.09;5034263;28;20049;-63
2022/01/20 03:18:56;;;;;;;25.52;11.13;;;;;;;5.05;95.19;102458.66;5036304;28;20651;-63
2022/01/20 03:21:24;;;;;;;26.88;11.65;;;;;;;5.16;94.41;102468.75;5034809;28;20065;-63
2022/01/20 03:23:51;;;;;;;31.85;11.88;;;;;;;5.27;94.18;102472.56;5034927;28;20412;-63
2022/01/20 03:26:19;;;;;;;22.83;11.25;;;;;;;5.26;92.69;102473.66;5031016;28;20081;-64
2022/01/20 03:28:46;;;;;;;26.73;10.95;;;;;;;5.50;92.08;102473.44;5016137;28;20061;-63
2022/01/20 03:31:13;;;;;;;25.48;10.43;;;;;;;5.42;90.89;102486.63;4998764;28;20057;-64
2022/01/20 03:33:41;;;;;;;31.48;10.60;;;;;;;5.53;90.78;102480.31;4998595;28;20062;-63
2022/01/20 03:36:08;;;;;;;25.05;10.18;;;;;;;5.65;89.90;102475.66;4997867;28;20057;-63
2022/01/20 03:38:56;;;;;;;24.10;9.20;;;;;;;5.68;88.97;102472.47;5015834;28;20057;-64
2022/01/20 03:41:23;;;;;;;23.27;9.93;;;;;;;5.49;89.16;102485.41;5033788;28;20053;-63
2022/01/20 03:43:54;;;;;;;23.83;9.18;;;;;;;5.41;90.19;102484.94;5034183;28;20064;-64
2022/01/20 03:46:22;;;;;;;28.10;9.77;;;;;;;5.24;90.54;102483.97;5017823;28;20080;-64
2022/01/20 03:48:56;;;;;;;23.02;8.50;;;;;;;5.14;90.50;102472.78;5035782;28;20045;-64
2022/01/20 03:51:25;;;;;;;28.13;10.05;;;;;;;5.09;91.41;102469.94;5034311;28;20054;-64
2022/01/20 03:53:56;;;;;;;23.30;9.48;;;;;;;5.30;90.56;102480.31;5034315;28;20045;-63
2022/01/20 03:56:46;;;;;;;22.17;8.55;;;;;;;5.38;90.17;102488.16;5034662;28;20057;-63
2022/01/20 03:59:48;;;;;;;22.83;8.13;;;;;;;5.59;88.52;102474.75;5035325;28;20053;-63
2022/01/20 04:02:22;;;;;;;22.02;7.95;;;;;;;5.69;87.67;102479.59;5033929;28;20452;-63
2022/01/20 04:04:55;;;;;;;21.30;8.50;;;;;;;5.60;87.38;102491.94;5034473;28;20056;-63
2022/01/20 04:07:28;;;;;;;28.42;8.25;;;;;;;5.07;88.83;102488.44;4997395;28;20057;-63
2022/01/20 04:09:56;;;;;;;27.75;7.65;;;;;;;5.38;88.90;102490.88;5015065;28;20057;-63
2022/01/20 04:12:23;;;;;;;20.83;8.05;;;;;;;5.20;87.80;102490.97;5033704;28;20045;-64
2022/01/20 04:14:50;;;;;;;23.25;8.55;;;;;;;5.28;87.94;102504.28;5035200;28;20428;-63
2022/01/20 04:17:19;;;;;;;23.80;7.88;;;;;;;5.42;87.88;102508.47;5033956;28;20049;-64
2022/01/20 04:19:47;;;;;;;22.25;7.50;;;;;;;5.08;87.34;102504.59;5033895;28;20047;-64
2022/01/20 04:22:14;;;;;;;29.15;7.95;;;;;;;4.89;89.30;102515.81;5033507;28;20408;-63
2022/01/20 04:24:47;;;;;;;28.17;8.10;;;;;;;4.83;89.72;102522.22;5033571;28;20045;-64
2022/01/20 04:27:14;;;;;;;19.48;7.60;;;;;;;4.87;89.54;102516.03;5033550;28;20060;-65
2022/01/20 04:29:41;;;;;;;20.95;6.97;;;;;;;4.72;90.06;102521.09;5034981;28;20056;-63
2022/01/20 04:32:09;;;;;;;18.30;7.00;;;;;;;4.79;89.74;102515.53;5034841;28;20045;-63
2022/01/20 04:34:36;;;;;;;23.20;6.47;;;;;;;5.05;88.22;102505.06;5017156;28;20609;-64
2022/01/20 04:37:05;;;;;;;21.50;6.72;;;;;;;4.93;88.67;102514.28;5023339;28;20068;-64
2022/01/20 04:39:36;;;;;;;27.60;7.28;;;;;;;4.90;88.83;102512.03;5019097;28;20132;-64
2022/01/20 04:42:04;;;;;;;19.75;6.50;;;;;;;5.00;86.97;102509.56;5033434;28;20053;-62
2022/01/20 04:47:29;;;;;;;23.05;5.70;;;;;;;4.80;86.58;102522.66;5033645;28;20611;-64
2022/01/20 04:58:08;;;;;;;21.15;5.70;;;;;;;4.66;85.55;102541.13;5033402;28;20057;-63
2022/01/20 05:00:36;;;;;;;18.85;5.38;;;;;;;4.66;85.98;102546.56;5033327;28;20049;-63
2022/01/20 05:03:27;;;;;;;15.25;4.30;;;;;;;4.53;85.92;102522.19;5023932;28;20060;-63
2022/01/20 05:05:59;;;;;;;25.77;5.35;;;;;;;4.52;86.00;102525.97;5033162;28;20097;-63
2022/01/20 05:08:29;;;;;;;21.67;5.80;;;;;;;4.68;85.73;102524.50;5032930;28;20054;-63
2022/01/20 05:11:02;;;;;;;24.10;5.28;;;;;;;4.71;85.51;102526.78;5033619;28;20050;-63
2022/01/20 05:13:35;;;;;;;21.25;5.63;;;;;;;4.73;85.08;102516.44;5032849;28;20068;-63
2022/01/20 05:16:03;;;;;;;24.30;4.65;;;;;;;4.79;85.02;102521.00;5026774;28;20057;-64
2022/01/20 05:18:31;;;;;;;21.83;5.10;;;;;;;4.79;84.02;102531.91;5037610;28;20120;-64
2022/01/20 05:20:58;;;;;;;20.63;4.75;;;;;;;4.70;83.75;102516.94;5034522;28;20049;-64
2022/01/20 05:23:25;;;;;;;20.80;4.97;;;;;;;4.76;84.63;102505.91;5033045;28;20060;-66
2022/01/20 05:25:53;;;;;;;20.42;4.47;;;;;;;5.19;83.34;102511.16;5033253;28;20417;-64
2022/01/20 05:28:22;;;;;;;20.88;4.47;;;;;;;5.00;83.53;102517.75;5010724;28;20069;-63
2022/01/20 05:30:50;;;;;;;23.73;5.55;;;;;;;4.76;83.81;102525.00;5031395;28;20065;-63
2022/01/20 05:33:26;;;;;;;17.92;4.20;;;;;;;4.83;84.07;102527.69;5031067;28;20060;-63
2022/01/20 05:35:54;;;;;;;21.33;4.95;;;;;;;4.79;82.63;102535.50;5032981;28;20408;-63
2022/01/20 05:38:21;;;;;;;18.00;4.63;;;;;;;5.05;82.04;102528.81;5036244;28;20045;-63
2022/01/20 05:40:50;;;;;;;23.70;5.93;;;;;;;5.05;82.28;102537.00;5036834;28;20064;-63
2022/01/20 05:43:17;;;;;;;21.30;5.00;;;;;;;5.09;81.35;102540.94;5036263;28;20519;-63
2022/01/20 05:45:48;;;;;;;22.45;3.90;;;;;;;5.01;80.84;102544.00;5036321;28;20064;-64
2022/01/20 05:48:20;;;;;;;21.38;4.18;;;;;;;5.02;80.51;102542.94;5020124;28;20061;-64
2022/01/20 05:51:06;;;;;;;17.63;4.22;;;;;;;4.91;80.75;102549.19;5023600;28;20057;-63
2022/01/20 05:53:34;;;;;;;21.98;5.38;;;;;;;4.48;83.01;102552.06;5036463;28;20053;-63
2022/01/20 05:56:01;;;;;;;18.17;4.40;;;;;;;4.73;83.06;102551.94;5036196;28;20057;-64
2022/01/20 05:58:36;;;;;;;20.33;4.45;;;;;;;4.70;82.58;102549.69;5034969;28;20057;-63
2022/01/20 06:01:07;;;;;;;16.88;4.60;;;;;;;4.78;82.10;102563.03;5035736;28;20057;-63
2022/01/20 06:03:38;;;;;;;20.50;5.20;;;;;;;4.48;83.55;102550.16;5036502;28;20045;-62
2022/01/20 06:06:24;;;;;;;20.27;4.32;;;;;;;4.63;83.47;102562.56;5031868;28;20045;-61
2022/01/20 06:08:53;;;;;;;18.20;4.00;;;;;;;4.61;83.13;102565.53;5037029;28;20052;-61
2022/01/20 06:11:20;;;;;;;21.27;5.30;;;;;;;4.77;83.15;102566.81;5035833;28;20057;-61
2022/01/20 06:13:49;;;;;;;16.35;4.47;;;;;;;4.91;81.90;102566.41;5036296;28;20053;-61
2022/01/20 06:16:16;;;;;;;19.27;4.53;;;;;;;4.75;81.87;102564.31;5037306;28;20139;-62
2022/01/20 06:18:44;;;;;;;14.75;4.15;;;;;;;4.59;82.27;102564.94;5019441;28;20064;-62
2022/01/20 06:21:11;;;;;;;18.13;4.32;;;;;;;4.42;82.05;102566.59;5035784;28;20053;-62
2022/01/20 06:23:40;;;;;;;19.63;4.10;;;;;;;4.47;82.31;102570.31;5036314;28;20057;-62
2022/01/20 06:26:07;;;;;;;13.82;3.78;;;;;;;4.59;82.12;102579.41;5036245;28;20050;-65
2022/01/20 06:28:37;;;;;;;24.30;4.82;;;;;;;4.39;82.77;102577.97;5035818;28;20551;-61
2022/01/20 06:31:08;;;;;;;19.33;4.28;;;;;;;4.57;82.26;102580.69;5036805;28;20057;-63
2022/01/20 06:33:36;;;;;;;22.00;4.80;;;;;;;4.48;82.17;102582.09;5032560;28;20053;-60
2022/01/20 06:36:05;;;;;;;27.90;5.53;;;;;;;4.49;82.22;102583.75;5019302;28;20060;-62
2022/01/20 06:38:32;;;;;;;23.00;4.63;;;;;;;4.61;81.82;102587.38;5035480;28;20500;-63
2022/01/20 06:41:00;;;;;;;18.58;4.53;;;;;;;4.56;81.82;102584.50;5035786;28;20053;-62
2022/01/20 06:43:31;;;;;;;17.85;3.97;;;;;;;4.48;82.12;102584.81;5035682;28;20404;-62
2022/01/20 06:45:59;;;;;;;20.08;4.57;;;;;;;4.41;82.69;102586.78;5019437;28;20045;-63
2022/01/20 06:48:50;;;;;;;17.13;3.67;;;;;;;4.33;82.71;102593.38;5034525;28;20054;-63
2022/01/20 06:51:26;;;;;;;22.48;5.25;;;;;;;4.31;82.38;102602.81;5036585;28;20048;-62
2022/01/20 06:53:53;;;;;;;18.85;3.72;;;;;;;4.21;82.64;102595.16;5036826;28;20060;-61
2022/01/20 06:56:24;;;;;;;17.52;3.65;;;;;;;4.28;82.52;102604.13;5036706;28;20121;-64
2022/01/20 06:59:10;;;;;;;23.58;4.20;;;;;;;4.24;82.63;102602.88;5035139;28;20065;-62
2022/01/20 07:01:39;;;;;;;15.43;3.38;;;;;;;4.08;82.59;102619.03;5035364;28;20061;-63
2022/01/20 07:04:08;;;;;;;15.95;3.55;;;;;;;4.17;82.73;102618.50;5018736;28;20053;-63
2022/01/20 07:06:37;;;;;;;19.55;4.35;;;;;;;4.12;82.67;102621.06;5034699;28;20053;-63
2022/01/20 07:09:23;;;;;;;21.25;4.10;;;;;;;4.08;82.01;102629.94;5036474;28;20045;-63
2022/01/20 07:11:53;;;;;;;18.48;3.70;;;;;;;4.28;82.39;102636.84;5034850;28;20045;-62
2022/01/20 07:14:21;;;;;;;22.60;3.88;;;;;;;4.19;81.58;102642.81;5034894;28;20140;-65
2022/01/20 07:16:49;;;;;;;14.93;3.72;;;;;;;4.13;82.14;102658.16;5031318;28;20055;-63
2022/01/20 07:19:20;;;;;;;19.63;4.18;;;;;;;4.01;82.78;102645.50;5034320;28;20053;-64
2022/01/20 07:21:50;;;;;;;17.48;4.13;;;;;;;4.09;82.53;102648.78;5030433;28;20056;-62
2022/01/20 07:24:20;;;;;;;16.80;3.58;;;;;;;4.09;82.56;102664.31;5028239;28;20061;-63
2022/01/20 07:26:48;;;;;;;16.15;3.75;;;;;;;4.10;82.71;102666.81;5034380;28;20056;-65
2022/01/20 07:29:25;;;;;;;18.50;3.85;;;;;;;4.09;82.36;102670.59;5016557;28;20045;-63
2022/01/20 07:31:53;;;;;;;21.67;4.43;;;;;;;4.19;82.22;102670.06;5039838;28;20060;-64
2022/01/20 07:34:21;;;;;;;14.95;3.28;;;;;;;4.12;82.39;102677.47;5034442;28;20072;-63
2022/01/20 07:36:49;;;;;;;22.35;4.38;;;;;;;4.10;83.19;102676.88;5036090;28;20546;-62
2022/01/20 07:39:16;;;;;;;16.67;4.05;;;;;;;4.08;83.41;102674.38;5034753;28;20049;-64
2022/01/20 07:41:43;;;;;;;24.35;4.15;;;;;;;4.03;83.94;102681.53;5034024;28;20050;-62
2022/01/20 07:44:35;;;;;;;20.08;4.05;;;;;;;4.03;83.97;102685.09;4997754;28;20091;-62
2022/01/20 07:47:12;;;;;;;18.67;4.57;;;;;;;4.03;84.34;102681.53;5033672;28;20053;-62
2022/01/20 07:49:39;;;;;;;20.88;5.15;;;;;;;4.09;84.10;102664.31;5028600;28;20041;-62
2022/01/20 07:52:07;;;;;;;20.77;4.57;;;;;;;4.23;84.06;102658.50;5016339;28;20057;-62
2022/01/20 07:54:34;;;;;;;18.40;4.47;;;;;;;4.21;83.10;102685.16;5029658;28;20053;-61
2022/01/20 07:57:04;;;;;;;24.08;4.60;;;;;;;4.14;83.86;102678.09;5021528;28;22174;-60
2022/01/20 07:59:31;;;;;;;22.15;5.20;;;;;;;4.21;83.69;102678.88;5031254;28;20085;-61
2022/01/20 08:01:59;;;;;;;16.48;4.07;;;;;;;4.28;83.03;102674.19;5013042;28;20226;-59
2022/01/20 08:04:27;;;;;;;23.95;4.97;;;;;;;4.39;83.37;102671.56;5034191;28;20052;-61
2022/01/20 08:06:57;;;;;;;22.05;4.40;;;;;;;4.24;83.25;102660.16;5015517;28;20049;-61
2022/01/20 08:09:24;;;;;;;24.25;4.57;;;;;;;4.69;82.85;102689.94;5032808;28;20053;-62
2022/01/20 08:12:18;;;;;;;26.40;5.22;;;;;;;4.28;83.25;102682.38;5037683;28;20045;-62
2022/01/20 08:15:02;;;;;;;18.15;4.70;;;;;;;4.15;83.91;102677.06;5030741;28;20038;-61
2022/01/20 08:17:54;;;;;;;18.20;4.57;;;;;;;4.10;83.87;102685.03;5030641;28;20049;-62
2022/01/20 08:20:22;;;;;;;22.02;4.57;;;;;;;4.17;84.04;102683.94;5032697;28;20053;-61
2022/01/20 08:22:58;;;;;;;20.88;4.70;;;;;;;4.31;84.50;102690.09;5037877;28;20075;-59
2022/01/20 08:25:26;;;;;;;21.80;4.88;;;;;;;4.14;84.58;102695.31;5024979;28;20473;-60
2022/01/20 08:27:54;;;;;;;19.67;4.60;;;;;;;4.25;84.96;102675.47;5031696;28;20384;-59
2022/01/20 08:30:25;;;;;;;32.83;4.78;;;;;;;4.36;84.94;102690.25;5024399;28;20053;-63
2022/01/20 08:32:56;;;;;;;19.65;4.55;;;;;;;4.49;84.06;102688.25;5030286;28;20037;-64
2022/01/20 08:35:33;;;;;;;18.70;4.95;;;;;;;4.47;83.10;102690.38;5036826;28;20045;-66
2022/01/20 08:38:12;;;;;;;21.73;4.75;;;;;;;4.43;84.57;102683.69;5034944;28;20041;-65
2022/01/20 08:40:40;;;;;;;25.88;5.25;;;;;;;4.30;84.63;102689.28;5031861;28;20060;-64
2022/01/20 08:43:08;;;;;;;20.17;5.60;;;;;;;4.23;84.53;102699.44;5032560;28;20050;-62
2022/01/20 08:45:39;;;;;;;25.02;5.38;;;;;;;4.31;85.05;102704.59;5032702;28;20041;-64
2022/01/20 08:48:11;;;;;;;18.60;4.63;;;;;;;4.08;86.00;102707.09;5015371;28;20060;-64
2022/01/20 08:50:59;;;;;;;24.02;5.05;;;;;;;4.28;85.60;102707.78;5033683;28;20064;-63
2022/01/20 08:53:31;;;;;;;23.75;5.50;;;;;;;4.39;85.82;102711.66;5014997;28;20061;-63
2022/01/20 08:56:00;;;;;;;24.17;5.45;;;;;;;4.58;84.87;102706.00;5021341;28;20056;-63
2022/01/20 08:58:32;;;;;;;19.85;4.93;;;;;;;4.40;85.17;102702.41;5031523;28;20057;-64
2022/01/20 09:01:00;;;;;;;24.70;5.00;;;;;;;4.65;84.97;102700.47;5009187;28;20049;-64
2022/01/20 09:03:31;;;;;;;26.63;5.20;;;;;;;4.69;84.00;102698.94;5013233;28;20056;-63
2022/01/20 09:06:02;;;;;;;21.63;4.80;;;;;;;4.83;83.43;102694.22;5030388;28;20085;-64
2022/01/20 09:08:39;;;;;;;25.38;6.28;;;;;;;4.89;83.42;102699.59;5016981;28;20048;-64
2022/01/20 09:11:19;;;;;;;27.65;5.55;;;;;;;4.93;83.21;102710.88;5032808;28;20045;-64
2022/01/20 09:16:50;;;;;;;21.52;5.53;;;;;;;4.93;83.55;102713.63;4981979;28;20053;-64
2022/01/20 09:19:21;;;;;;;27.95;5.85;;;;;;;5.15;82.13;102709.34;5019807;28;20046;-65
2022/01/20 09:21:58;;;;;;;34.35;7.03;;;;;;;5.00;83.05;102717.09;5035747;28;20052;-65
2022/01/20 09:24:26;;;;;;;21.15;4.88;;;;;;;4.86;83.78;102723.78;5032571;28;20596;-63
2022/01/20 09:26:55;;;;;;;26.90;6.18;;;;;;;4.82;83.67;102731.59;5019892;28;20511;-64
2022/01/20 09:29:23;;;;;;;27.67;6.35;;;;;;;4.93;84.25;102738.19;5033618;28;20386;-65
2022/01/20 09:31:51;;;;;;;25.98;6.15;;;;;;;4.88;83.41;102740.78;5034124;28;20061;-65
2022/01/20 09:34:24;;;;;;;31.08;5.78;;;;;;;5.09;83.19;102743.06;5033018;28;20819;-64
2022/01/20 09:36:52;;;;;;;20.55;5.55;;;;;;;5.20;82.07;102745.00;5018899;28;20052;-63
2022/01/20 09:39:20;;;;;;;24.27;5.90;;;;;;;5.01;83.45;102759.72;5002324;28;20049;-64
2022/01/20 09:42:02;;;;;;;24.80;6.50;;;;;;;4.95;84.13;102764.19;5014116;28;20053;-64
2022/01/20 09:44:32;;;;;;;26.05;6.82;;;;;;;4.73;84.78;102753.91;5025311;28;20057;-63
2022/01/20 09:47:00;;;;;;;22.48;5.63;;;;;;;4.76;85.44;102753.50;5034328;28;20054;-64
2022/01/20 09:49:43;;;;;;;25.65;6.95;;;;;;;4.87;85.40;102745.38;5037022;28;20045;-64
2022/01/20 09:52:23;;;;;;;25.98;7.10;;;;;;;5.10;85.34;102740.09;5033512;28;20063;-64
2022/01/20 09:54:58;;;;;;;26.92;6.13;;;;;;;5.13;83.73;102736.91;5037405;28;20491;-65
2022/01/20 09:57:25;;;;;;;26.00;7.03;;;;;;;5.36;83.93;102741.66;5027704;28;20057;-64
2022/01/20 09:59:53;;;;;;;22.98;7.38;;;;;;;5.35;83.13;102734.53;5049871;28;20060;-62
2022/01/20 10:02:20;;;;;;;21.23;7.00;;;;;;;5.72;82.19;102747.03;5033708;28;20061;-64
2022/01/20 10:04:56;;;;;;;26.70;7.20;;;;;;;5.54;82.65;102741.63;5034562;28;20049;-65
2022/01/20 10:07:34;;;;;;;26.80;7.07;;;;;;;5.64;82.92;102744.66;5050226;28;20454;-63
2022/01/20 10:10:07;;;;;;;25.92;6.53;;;;;;;5.85;82.22;102749.63;5029261;28;20056;-64
2022/01/20 10:13:05;;;;;;;25.77;7.05;;;;;;;5.82;82.19;102755.53;5023801;28;20054;-63
2022/01/20 10:16:10;;;;;;;24.73;7.03;;;;;;;5.58;82.13;102760.06;5025376;28;20044;-63
2022/01/20 10:18:48;;;;;;;28.77;7.80;;;;;;;5.41;83.05;102756.31;5048526;28;20053;-67
2022/01/20 10:21:17;;;;;;;26.10;6.63;;;;;;;5.44;83.39;102769.50;5035440;28;20049;-64
2022/01/20 10:23:50;;;;;;;27.70;7.18;;;;;;;5.58;83.07;102781.09;5016171;28;20293;-63
2022/01/20 10:26:30;;;;;;;28.73;7.15;;;;;;;5.52;82.36;102782.88;5034214;28;20053;-64
2022/01/20 10:29:09;;;;;;;23.20;6.88;;;;;;;5.54;82.72;102782.63;5034451;28;20682;-63
2022/01/20 10:31:41;;;;;;;25.73;6.65;;;;;;;5.77;81.79;102790.13;5017097;28;20449;-65
2022/01/20 10:34:34;;;;;;;26.15;6.95;;;;;;;5.58;82.65;102783.81;5032048;28;20481;-63
2022/01/20 10:37:16;;;;;;;29.75;8.40;;;;;;;5.99;82.47;102792.13;5034396;28;20531;-63
2022/01/20 10:40:12;;;;;;;30.23;7.90;;;;;;;5.92;81.87;102783.19;5025925;28;20072;-63
2022/01/20 10:42:54;;;;;;;24.55;7.72;;;;;;;6.12;81.62;102780.97;5005404;28;20409;-64
2022/01/20 10:45:25;;;;;;;28.73;6.63;;;;;;;6.29;80.56;102801.16;5033485;28;20532;-65
2022/01/20 10:47:55;;;;;;;43.40;7.72;;;;;;;6.08;81.20;102798.94;5011203;28;20049;-63
2022/01/20 10:50:29;;;;;;;23.02;7.53;;;;;;;5.95;80.98;102796.41;5033795;28;20054;-64
2022/01/20 10:53:16;;;;;;;23.92;6.97;;;;;;;6.13;81.05;102801.81;5018812;28;20729;-65
2022/01/20 10:55:43;;;;;;;27.13;8.10;;;;;;;5.86;81.69;102800.50;5018823;28;20053;-63
2022/01/20 10:58:22;;;;;;;31.88;8.15;;;;;;;5.73;82.13;102785.13;5038445;28;20052;-64
2022/01/20 11:00:55;;;;;;;23.35;7.35;;;;;;;6.17;81.00;102796.72;5034718;28;20045;-62
2022/01/20 11:03:28;;;;;;;23.85;8.13;;;;;;;5.78;81.86;102789.03;5033929;28;20045;-64
2022/01/20 11:05:59;;;;;;;25.60;8.15;;;;;;;5.93;82.01;102794.97;5009736;28;20052;-63
2022/01/20 11:08:40;;;;;;;26.70;9.68;;;;;;;5.70;83.48;102785.56;5034733;28;20527;-63
2022/01/20 11:11:09;;;;;;;37.65;10.68;;;;;;;5.82;82.76;102780.16;5034570;28;20508;-62
2022/01/20 11:13:56;;;;;;;28.67;9.32;;;;;;;6.01;82.17;102787.28;5033728;28;20150;-64
2022/01/20 11:16:24;;;;;;;28.52;8.73;;;;;;;6.12;81.24;102780.97;5017604;28;20045;-64
2022/01/20 11:18:52;;;;;;;27.08;8.45;;;;;;;5.97;81.79;102785.22;5012815;28;20048;-63
2022/01/20 11:21:25;;;;;;;31.63;6.93;;;;;;;5.70;81.58;102782.81;5028172;28;20041;-63
2022/01/20 11:23:53;;;;;;;26.30;8.25;;;;;;;5.62;82.16;102795.97;5033914;28;20045;-64
2022/01/20 11:26:55;;;;;;;24.15;7.30;;;;;;;5.66;82.99;102780.78;5011971;28;20065;-64
2022/01/20 11:29:50;;;;;;;30.08;7.90;;;;;;;6.02;81.16;102786.19;5022752;28;20053;-64
2022/01/20 11:32:39;;;;;;;31.95;8.38;;;;;;;6.04;80.43;102792.28;5014264;28;20060;-64
2022/01/20 11:35:16;;;;;;;29.35;7.82;;;;;;;5.93;80.91;102771.19;5011300;28;20460;-64
2022/01/20 11:37:55;;;;;;;30.42;9.20;;;;;;;6.25;80.34;102771.75;5034924;28;20037;-63
2022/01/20 11:40:24;;;;;;;22.27;7.25;;;;;;;6.26;79.25;102773.44;5038374;28;20050;-63
2022/01/20 11:42:59;;;;;;;25.85;7.28;;;;;;;6.05;81.15;102768.50;5035152;28;20049;-62
2022/01/20 11:45:31;;;;;;;27.45;8.15;;;;;;;6.16;81.43;102770.41;5035284;28;20060;-64
2022/01/20 11:48:20;;;;;;;33.13;7.53;;;;;;;6.27;80.17;102770.44;5034414;28;20053;-63
2022/01/20 11:51:02;;;;;;;28.88;8.38;;;;;;;6.24;80.23;102778.28;5034245;28;20045;-62
2022/01/20 11:53:29;;;;;;;32.20;8.65;;;;;;;6.29;79.36;102776.53;5035596;28;20064;-64
2022/01/20 11:55:56;;;;;;;23.33;8.48;;;;;;;6.50;79.27;102783.34;5034414;28;20414;-64
2022/01/20 11:58:25;;;;;;;26.33;7.38;;;;;;;6.26;78.72;102768.75;5031800;28;20061;-62
2022/01/20 12:00:59;;;;;;;27.05;7.80;;;;;;;6.25;79.65;102785.44;5032151;28;20041;-62
2022/01/20 12:03:28;;;;;;;31.40;7.97;;;;;;;6.44;79.17;102781.53;5034779;28;20053;-63
2022/01/20 12:06:01;;;;;;;26.05;7.50;;;;;;;6.36;79.09;102769.00;5033769;28;20049;-63
2022/01/20 12:09:01;;;;;;;21.33;5.93;;;;;;;6.45;77.84;102780.47;5033606;28;20053;-64
2022/01/20 12:11:45;;;;;;;24.10;6.57;;;;;;;6.49;77.77;102773.44;5030937;28;20068;-68
2022/01/20 12:14:14;;;;;;;18.67;5.68;;;;;;;6.75;77.08;102776.56;5030786;28;20053;-68
2022/01/20 12:16:41;;;;;;;29.30;6.18;;;;;;;6.60;77.12;102780.84;5027245;28;20362;-64
2022/01/20 12:19:10;;;;;;;21.23;5.95;;;;;;;6.83;78.68;102770.72;5030555;28;20057;-64
2022/01/20 12:21:38;;;;;;;27.70;5.47;;;;;;;6.79;76.48;102771.44;5033319;28;20076;-64
2022/01/20 12:24:06;;;;;;;22.48;5.75;;;;;;;6.90;75.46;102772.50;5029580;28;20388;-64
2022/01/20 12:26:35;;;;;;;17.30;5.60;;;;;;;7.06;74.44;102769.88;5030377;28;20064;-65
2022/01/20 12:29:04;;;;;;;22.92;5.50;;;;;;;6.86;73.25;102772.16;5032703;28;20053;-64
2022/01/20 12:31:33;;;;;;;24.25;4.80;;;;;;;6.83;71.95;102775.38;5032320;28;20064;-64
2022/01/20 12:34:01;;;;;;;15.00;4.45;;;;;;;6.97;71.65;102775.97;5033022;28;20060;-63
2022/01/20 12:36:28;;;;;;;18.80;4.00;;;;;;;6.85;70.23;102768.56;5033784;28;20046;-63
2022/01/20 12:38:55;;;;;;;15.05;3.50;;;;;;;7.06;69.52;102766.31;5033732;28;20050;-64
2022/01/20 12:41:24;;;;;;;15.63;3.72;;;;;;;7.46;69.96;102768.00;5033876;28;20041;-64
2022/01/20 12:44:09;;;;;;;23.88;4.32;;;;;;;7.76;70.02;102767.78;5034282;28;20068;-64
2022/01/20 12:46:39;;;;;;;19.77;4.03;;;;;;;7.37;68.17;102760.41;5033444;28;20057;-64
2022/01/20 12:49:06;;;;;;;21.73;4.53;;;;;;;7.33;69.59;102759.22;5034332;28;20080;-64
2022/01/20 12:51:35;;;;;;;26.65;5.30;;;;;;;7.69;68.40;102780.78;5033023;28;20373;-63